Time;durP1;ratioP1;P1;durP2;ratioP2;P2;SDS_P1;SDS_P2;PMS_P1;PMS_P2;Temp;Humidity;BMP_temperature;BMP_pressure;BME280_temperature;BME280_humidity;BME280_pressure;Samples;Min_cycle;Max_cycle;Signal;HPM_P1;HPM_P2
2023/12/16 00:02:05;;;;;;;21.92;2.88;;;;;;;;;;5006748;28;20046;-92
2023/12/16 00:04:36;;;;;;;8.73;2.90;;;;;;;;;;4994100;28;20052;-92
2023/12/16 00:07:05;;;;;;;15.70;3.97;;;;;;;;;;4991587;28;20065;-91
2023/12/16 00:09:47;;;;;;;11.43;2.08;;;;;;;;;;5007295;28;20057;-91
2023/12/16 00:12:21;;;;;;;17.85;2.67;;;;;;;;;;5011889;28;20077;-91
2023/12/16 00:15:04;;;;;;;15.98;3.25;;;;;;;;;;4993933;28;20354;-91
2023/12/16 00:17:32;;;;;;;27.17;3.63;;;;;;;;;;5007264;28;20050;-92
2023/12/16 00:20:11;;;;;;;16.67;2.67;;;;;;;;;;5007904;28;20053;-92
2023/12/16 00:22:40;;;;;;;16.17;3.03;;;;;;;;;;4989521;28;20066;-91
2023/12/16 00:25:13;;;;;;;12.25;2.50;;;;;;;;;;5004636;28;20113;-91
2023/12/16 00:27:44;;;;;;;13.73;2.83;;;;;;;;;;4993025;28;20050;-91
2023/12/16 00:30:25;;;;;;;15.50;2.85;;;;;;;;;;4989388;28;20119;-91
2023/12/16 00:33:06;;;;;;;10.43;2.75;;;;;;;;;;4989551;28;20042;-90
2023/12/16 00:35:46;;;;;;;17.45;3.10;;;;;;;;;;4986018;28;20069;-91
2023/12/16 00:38:17;;;;;;;13.05;3.13;;;;;;;;;;4990311;28;20074;-91
2023/12/16 00:41:07;;;;;;;19.98;3.33;;;;;;;;;;5006124;28;20122;-91
2023/12/16 00:43:35;;;;;;;9.52;2.28;;;;;;;;;;5006421;28;20066;-91
2023/12/16 00:46:08;;;;;;;15.32;2.63;;;;;;;;;;4990660;28;20150;-91
2023/12/16 00:48:49;;;;;;;8.32;2.05;;;;;;;;;;4989430;28;20038;-91
2023/12/16 00:51:19;;;;;;;10.48;2.30;;;;;;;;;;4990500;28;20078;-91
2023/12/16 00:54:05;;;;;;;15.88;2.30;;;;;;;;;;4991327;28;20050;-91
2023/12/16 00:56:38;;;;;;;16.63;2.08;;;;;;;;;;5006036;28;20056;-91
2023/12/16 00:59:29;;;;;;;8.75;1.60;;;;;;;;;;4990624;28;20074;-91
2023/12/16 01:02:05;;;;;;;11.60;2.30;;;;;;;;;;4991390;28;20077;-91
2023/12/16 01:04:46;;;;;;;8.80;1.95;;;;;;;;;;4990088;28;20039;-91
2023/12/16 01:07:23;;;;;;;7.10;1.83;;;;;;;;;;4983154;28;20043;-91
2023/12/16 01:09:52;;;;;;;7.05;1.77;;;;;;;;;;4982174;28;20065;-91
2023/12/16 01:12:34;;;;;;;13.73;2.30;;;;;;;;;;4978895;28;20292;-91
2023/12/16 01:15:05;;;;;;;6.15;2.15;;;;;;;;;;4982461;28;20359;-92
2023/12/16 01:17:36;;;;;;;14.07;1.80;;;;;;;;;;4983157;28;20074;-92
2023/12/16 01:20:09;;;;;;;14.27;1.70;;;;;;;;;;4984694;28;20106;-91
2023/12/16 01:22:50;;;;;;;11.20;1.80;;;;;;;;;;4981382;28;20102;-92
2023/12/16 01:25:19;;;;;;;16.80;1.85;;;;;;;;;;4982230;28;20430;-92
2023/12/16 01:27:47;;;;;;;16.70;2.13;;;;;;;;;;4982309;28;20066;-91
2023/12/16 01:30:19;;;;;;;14.38;1.63;;;;;;;;;;4981846;28;20047;-91
2023/12/16 01:32:47;;;;;;;16.23;2.70;;;;;;;;;;4981404;28;20061;-91
2023/12/16 01:35:16;;;;;;;9.07;1.38;;;;;;;;;;4984607;28;20259;-91
2023/12/16 01:38:01;;;;;;;12.38;2.03;;;;;;;;;;4995004;28;20038;-91
2023/12/16 01:40:37;;;;;;;9.52;1.50;;;;;;;;;;4996328;28;20051;-90
2023/12/16 01:43:10;;;;;;;10.02;1.05;;;;;;;;;;4997457;28;20411;-90
2023/12/16 01:45:56;;;;;;;6.65;1.58;;;;;;;;;;4982298;28;20039;-91
2023/12/16 01:48:40;;;;;;;12.45;2.08;;;;;;;;;;4982959;28;20050;-91
2023/12/16 01:51:14;;;;;;;10.18;1.80;;;;;;;;;;4970333;28;20061;-90
2023/12/16 01:53:55;;;;;;;5.82;1.98;;;;;;;;;;4968855;28;20057;-91
2023/12/16 01:56:35;;;;;;;5.18;1.48;;;;;;;;;;4981858;28;20050;-91
2023/12/16 01:59:08;;;;;;;6.55;1.08;;;;;;;;;;4997387;28;20054;-92
2023/12/16 02:01:37;;;;;;;4.65;1.10;;;;;;;;;;4983495;28;20118;-89
2023/12/16 02:04:14;;;;;;;13.05;1.63;;;;;;;;;;4982289;28;20051;-89
2023/12/16 02:06:55;;;;;;;15.32;1.95;;;;;;;;;;4997258;28;20038;-89
2023/12/16 02:09:35;;;;;;;10.60;2.42;;;;;;;;;;4997501;28;20042;-89
2023/12/16 02:12:19;;;;;;;6.75;2.05;;;;;;;;;;4996035;28;20046;-89
2023/12/16 02:14:54;;;;;;;10.35;2.65;;;;;;;;;;5002343;28;20082;-89
2023/12/16 02:17:53;;;;;;;13.65;2.15;;;;;;;;;;4994635;28;20262;-89
2023/12/16 02:20:37;;;;;;;6.45;1.55;;;;;;;;;;4997491;28;20274;-90
2023/12/16 02:23:38;;;;;;;1.77;1.48;;;;;;;;;;4984884;28;20118;-90
2023/12/16 02:26:17;;;;;;;6.07;1.85;;;;;;;;;;4972043;28;20061;-90
2023/12/16 02:28:47;;;;;;;16.55;2.17;;;;;;;;;;4984513;28;20114;-90
2023/12/16 02:31:23;;;;;;;8.48;1.27;;;;;;;;;;4968590;28;20089;-90
2023/12/16 02:33:59;;;;;;;6.55;1.48;;;;;;;;;;4986878;28;20038;-91
2023/12/16 02:36:40;;;;;;;12.15;1.67;;;;;;;;;;4992842;28;20035;-91
2023/12/16 02:39:10;;;;;;;4.28;1.52;;;;;;;;;;4993132;28;20042;-90
2023/12/16 02:41:48;;;;;;;4.00;1.15;;;;;;;;;;4992961;28;20058;-91
2023/12/16 02:47:42;;;;;;;6.18;1.73;;;;;;;;;;4991490;28;19998;-91
2023/12/16 02:50:20;;;;;;;4.05;1.42;;;;;;;;;;4992688;28;20048;-91
2023/12/16 02:52:51;;;;;;;5.05;1.10;;;;;;;;;;4990105;28;20050;-91
2023/12/16 03:05:49;;;;;;;3.22;1.35;;;;;;;;;;4984731;28;20066;-91
2023/12/16 03:08:30;;;;;;;9.00;1.42;;;;;;;;;;4985056;28;20118;-91
2023/12/16 03:11:10;;;;;;;7.13;1.38;;;;;;;;;;4982687;28;20347;-91
2023/12/16 03:13:42;;;;;;;12.60;1.25;;;;;;;;;;4990167;28;20082;-90
2023/12/16 03:16:11;;;;;;;5.63;1.60;;;;;;;;;;4985338;28;20058;-90
2023/12/16 03:18:39;;;;;;;7.35;1.77;;;;;;;;;;4984733;28;20046;-89
2023/12/16 03:21:21;;;;;;;8.05;1.77;;;;;;;;;;4983613;28;20046;-90
2023/12/16 03:23:56;;;;;;;9.82;1.73;;;;;;;;;;4983740;28;20054;-90
2023/12/16 03:26:37;;;;;;;7.75;1.25;;;;;;;;;;4976268;28;20134;-90
2023/12/16 03:29:16;;;;;;;7.05;2.03;;;;;;;;;;4984764;28;20416;-90
2023/12/16 03:32:00;;;;;;;7.43;1.10;;;;;;;;;;4984818;28;20043;-91
2023/12/16 03:34:32;;;;;;;2.80;1.02;;;;;;;;;;4982985;28;20078;-91
2023/12/16 03:37:14;;;;;;;4.32;1.13;;;;;;;;;;4983724;28;20072;-90
2023/12/16 03:39:57;;;;;;;7.30;1.30;;;;;;;;;;4980197;28;20042;-90
2023/12/16 03:42:39;;;;;;;2.95;1.00;;;;;;;;;;4981062;28;20038;-90
2023/12/16 03:45:20;;;;;;;6.25;1.50;;;;;;;;;;4983160;28;20146;-90
2023/12/16 03:47:52;;;;;;;5.07;0.80;;;;;;;;;;4983655;28;20373;-90
2023/12/16 03:50:24;;;;;;;2.13;0.85;;;;;;;;;;4984627;28;20063;-90
2023/12/16 03:52:55;;;;;;;4.50;1.33;;;;;;;;;;4985447;28;20059;-89
2023/12/16 03:55:24;;;;;;;7.68;0.93;;;;;;;;;;4984178;28;20054;-90
2023/12/16 03:57:56;;;;;;;6.05;1.13;;;;;;;;;;4984767;28;20051;-90
2023/12/16 04:00:26;;;;;;;7.72;1.65;;;;;;;;;;4981102;28;20074;-90
2023/12/16 04:03:13;;;;;;;1.55;0.77;;;;;;;;;;4967996;28;20047;-91
2023/12/16 04:06:00;;;;;;;6.93;1.80;;;;;;;;;;4980775;28;20059;-90
2023/12/16 04:08:42;;;;;;;6.40;1.10;;;;;;;;;;4967555;28;20105;-89
2023/12/16 04:11:26;;;;;;;5.10;1.50;;;;;;;;;;4977717;28;20047;-89
2023/12/16 04:14:09;;;;;;;8.95;1.02;;;;;;;;;;4980300;28;20116;-90
2023/12/16 04:16:52;;;;;;;6.75;1.65;;;;;;;;;;4981521;28;20055;-90
2023/12/16 04:19:36;;;;;;;14.25;1.38;;;;;;;;;;5115779;23;20324;-89
2023/12/16 04:22:18;;;;;;;8.32;1.30;;;;;;;;;;4930663;29;20042;-90
2023/12/16 04:24:58;;;;;;;6.15;1.27;;;;;;;;;;4960649;28;20043;-89
2023/12/16 04:27:35;;;;;;;11.05;1.83;;;;;;;;;;4962889;28;20061;-89
2023/12/16 04:30:17;;;;;;;2.10;1.08;;;;;;;;;;4961331;29;20374;-90
2023/12/16 04:32:47;;;;;;;9.43;1.27;;;;;;;;;;4963111;28;20057;-89
2023/12/16 04:35:24;;;;;;;11.43;1.40;;;;;;;;;;4954142;28;20166;-90
2023/12/16 04:38:07;;;;;;;5.75;1.65;;;;;;;;;;4960628;28;20082;-90
2023/12/16 04:40:48;;;;;;;4.22;2.05;;;;;;;;;;4963459;28;20051;-90
2023/12/16 04:43:25;;;;;;;7.18;1.33;;;;;;;;;;4961731;28;20082;-90
2023/12/16 04:46:19;;;;;;;4.40;1.50;;;;;;;;;;4948012;29;20115;-90
2023/12/16 04:49:02;;;;;;;2.80;1.10;;;;;;;;;;4944519;29;20267;-89
2023/12/16 04:51:44;;;;;;;9.43;2.25;;;;;;;;;;4959851;28;20235;-90
2023/12/16 04:54:28;;;;;;;;;;;;;;;;;;4960148;29;20439;-90
2023/12/16 04:57:10;;;;;;;14.82;2.03;;;;;;;;;;4945838;29;19922;-91
2023/12/16 04:59:50;;;;;;;5.03;1.83;;;;;;;;;;4946478;29;20075;-89
2023/12/16 05:02:34;;;;;;;4.15;1.30;;;;;;;;;;4961194;29;20047;-89
2023/12/16 05:05:15;;;;;;;10.32;1.90;;;;;;;;;;4963807;28;20047;-89
2023/12/16 05:07:47;;;;;;;7.45;1.50;;;;;;;;;;4963624;28;20051;-90
2023/12/16 05:10:27;;;;;;;13.05;1.23;;;;;;;;;;4960989;28;20065;-90
2023/12/16 05:13:11;;;;;;;4.38;1.45;;;;;;;;;;4960423;29;20102;-91
2023/12/16 05:15:51;;;;;;;10.45;2.58;;;;;;;;;;4962459;28;20042;-90
2023/12/16 05:18:25;;;;;;;6.03;2.08;;;;;;;;;;4966152;28;20054;-89
2023/12/16 05:21:07;;;;;;;0.00;0.00;;;;;;;;;;4967443;28;20055;-90
2023/12/16 05:23:50;;;;;;;0.35;0.35;;;;;;;;;;4964743;28;20054;-90
2023/12/16 05:34:15;;;;;;;12.52;1.45;;;;;;;;;;4958867;29;20051;-90
2023/12/16 05:36:57;;;;;;;0.00;0.00;;;;;;;;;;4945417;29;20051;-89
2023/12/16 05:39:38;;;;;;;0.00;0.00;;;;;;;;;;4945937;29;20050;-89
2023/12/16 05:42:19;;;;;;;0.00;0.00;;;;;;;;;;4943319;29;20052;-89
2023/12/16 05:45:00;;;;;;;0.08;0.08;;;;;;;;;;4943697;29;20047;-89
2023/12/16 05:47:40;;;;;;;0.00;0.00;;;;;;;;;;4944866;29;20428;-89
2023/12/16 05:50:21;;;;;;;0.00;0.00;;;;;;;;;;4944458;29;20420;-88
2023/12/16 05:53:02;;;;;;;0.00;0.00;;;;;;;;;;4945115;29;20039;-89
2023/12/16 05:55:47;;;;;;;0.00;0.00;;;;;;;;;;4958489;29;20051;-90
2023/12/16 05:58:22;;;;;;;0.00;0.00;;;;;;;;;;4951900;28;20118;-90
2023/12/16 06:01:06;;;;;;;0.00;0.00;;;;;;;;;;4945588;29;20436;-91
2023/12/16 06:03:50;;;;;;;0.43;0.43;;;;;;;;;;4944300;29;20063;-91
2023/12/16 06:06:31;;;;;;;0.10;0.10;;;;;;;;;;4946231;29;20153;-93
2023/12/16 06:08:59;;;;;;;0.15;0.15;;;;;;;;;;4946498;29;20074;-91
2023/12/16 06:11:40;;;;;;;0.00;0.00;;;;;;;;;;4962570;29;20054;-92
2023/12/16 06:14:11;;;;;;;0.00;0.00;;;;;;;;;;4963336;28;20059;-93
2023/12/16 06:16:39;;;;;;;0.00;0.00;;;;;;;;;;4946622;29;20078;-92
2023/12/16 06:19:08;;;;;;;0.00;0.00;;;;;;;;;;4945809;29;20047;-93
2023/12/16 06:21:43;;;;;;;;;;;;;;;;;;4949215;29;20211;-92
2023/12/16 06:24:13;;;;;;;0.00;0.00;;;;;;;;;;4962700;29;19934;-92
2023/12/16 06:26:47;;;;;;;0.00;0.00;;;;;;;;;;4947136;29;20089;-93
2023/12/16 06:29:16;;;;;;;0.10;0.10;;;;;;;;;;4947474;28;20057;-92
2023/12/16 06:31:48;;;;;;;0.00;0.00;;;;;;;;;;4949953;28;20087;-93
2023/12/16 06:34:19;;;;;;;9.02;1.58;;;;;;;;;;4962706;29;20210;-93
2023/12/16 06:36:47;;;;;;;5.30;1.42;;;;;;;;;;4948498;29;20412;-92
2023/12/16 06:39:19;;;;;;;11.98;2.22;;;;;;;;;;4947569;29;20047;-92
2023/12/16 06:41:48;;;;;;;6.72;1.50;;;;;;;;;;4946977;29;20050;-93
2023/12/16 06:44:18;;;;;;;3.60;1.48;;;;;;;;;;4939364;28;20079;-93
2023/12/16 06:46:48;;;;;;;2.55;0.93;;;;;;;;;;4965596;29;20070;-92
2023/12/16 06:49:16;;;;;;;11.82;2.85;;;;;;;;;;4964970;29;20146;-92
2023/12/16 06:51:57;;;;;;;3.40;1.50;;;;;;;;;;4964197;29;20352;-92
2023/12/16 06:54:39;;;;;;;10.25;2.30;;;;;;;;;;4948912;29;20196;-91
2023/12/16 06:57:07;;;;;;;10.93;2.42;;;;;;;;;;4949797;29;20055;-91
2023/12/16 06:59:38;;;;;;;10.75;2.10;;;;;;;;;;4966855;29;20055;-92
2023/12/16 07:02:11;;;;;;;1.88;0.73;;;;;;;;;;4949818;29;20051;-91
2023/12/16 07:04:39;;;;;;;12.65;1.52;;;;;;;;;;4949058;29;20051;-91
2023/12/16 07:07:08;;;;;;;3.83;1.17;;;;;;;;;;4949179;29;20047;-91
2023/12/16 07:13:00;;;;;;;9.68;2.30;;;;;;;;;;4988615;23;20026;-91
2023/12/16 07:15:31;;;;;;;8.57;1.30;;;;;;;;;;4958253;28;20055;-91
2023/12/16 07:18:07;;;;;;;7.25;1.55;;;;;;;;;;4958723;28;20074;-91
2023/12/16 07:20:52;;;;;;;5.72;0.98;;;;;;;;;;4972040;28;20114;-90
2023/12/16 07:23:33;;;;;;;8.50;1.98;;;;;;;;;;4957863;28;20094;-91
2023/12/16 07:26:05;;;;;;;1.92;0.63;;;;;;;;;;4955586;28;20043;-91
2023/12/16 07:28:32;;;;;;;11.50;1.90;;;;;;;;;;4964690;29;20432;-91
2023/12/16 07:31:05;;;;;;;13.63;1.83;;;;;;;;;;4948993;29;20055;-92
2023/12/16 07:36:47;;;;;;;12.45;1.55;;;;;;;;;;5016352;23;20110;-91
2023/12/16 07:39:31;;;;;;;9.43;2.42;;;;;;;;;;4962603;29;20051;-90
2023/12/16 07:42:04;;;;;;;25.60;3.45;;;;;;;;;;4965210;29;20085;-92
2023/12/16 07:44:38;;;;;;;4.60;1.23;;;;;;;;;;4966255;28;20080;-91
2023/12/16 07:47:05;;;;;;;11.93;1.85;;;;;;;;;;4966083;29;20066;-91
2023/12/16 07:49:43;;;;;;;11.73;2.22;;;;;;;;;;4967576;28;20062;-92
2023/12/16 07:52:15;;;;;;;14.98;2.15;;;;;;;;;;4967812;28;20051;-91
2023/12/16 07:54:44;;;;;;;11.88;1.65;;;;;;;;;;4970157;29;20070;-92
2023/12/16 07:57:28;;;;;;;17.77;2.03;;;;;;;;;;4971511;28;20152;-92
2023/12/16 07:59:57;;;;;;;9.20;2.33;;;;;;;;;;4970319;28;20142;-93
2023/12/16 14:09:24;;;;;;;21.80;6.80;;;;;;;;;;4944171;29;20063;-89
2023/12/16 14:12:05;;;;;;;22.02;9.50;;;;;;;;;;4940796;29;20055;-89
2023/12/16 14:14:46;;;;;;;11.98;6.78;;;;;;;;;;4923468;29;20043;-89
2023/12/16 14:17:30;;;;;;;15.18;7.60;;;;;;;;;;4932102;29;20056;-90
2023/12/16 14:20:11;;;;;;;22.92;7.20;;;;;;;;;;4927942;29;20048;-90
2023/12/16 14:22:54;;;;;;;13.73;6.38;;;;;;;;;;4926688;29;20055;-89
2023/12/16 14:25:38;;;;;;;14.25;6.97;;;;;;;;;;4926455;29;20464;-89
2023/12/16 14:28:21;;;;;;;9.98;5.30;;;;;;;;;;4940365;29;20062;-89
2023/12/16 14:30:55;;;;;;;18.98;7.65;;;;;;;;;;4942520;29;20107;-89
2023/12/16 14:33:36;;;;;;;12.07;6.13;;;;;;;;;;4929039;29;20055;-89
2023/12/16 14:36:22;;;;;;;14.32;7.15;;;;;;;;;;4926506;29;20476;-89
2023/12/16 14:39:03;;;;;;;;;;;;;;;;;;4925048;29;20047;-90
2023/12/16 14:41:47;;;;;;;12.80;6.45;;;;;;;;;;4939494;29;19922;-90
2023/12/16 14:44:32;;;;;;;11.40;5.95;;;;;;;;;;4941468;29;20087;-90
2023/12/16 14:47:17;;;;;;;17.27;6.80;;;;;;;;;;4941477;29;20043;-90
2023/12/16 14:50:01;;;;;;;13.45;6.80;;;;;;;;;;4925790;29;20043;-90
2023/12/16 14:56:06;;;;;;;8.73;5.05;;;;;;;;;;4942600;29;20039;-89
2023/12/16 14:58:47;;;;;;;0.95;0.90;;;;;;;;;;4931009;29;20110;-90
2023/12/16 15:01:26;;;;;;;0.47;0.25;;;;;;;;;;4943027;29;20055;-90
2023/12/16 15:04:13;;;;;;;0.00;0.00;;;;;;;;;;4928330;29;20036;-90
2023/12/16 15:06:58;;;;;;;0.00;0.00;;;;;;;;;;4929646;29;20155;-89
2023/12/16 15:09:39;;;;;;;0.00;0.00;;;;;;;;;;4924893;29;20094;-89
2023/12/16 15:12:28;;;;;;;0.00;0.00;;;;;;;;;;4940822;29;20262;-89
2023/12/16 15:15:49;;;;;;;0.15;0.15;;;;;;;;;;4930181;29;20098;-91
2023/12/16 15:18:33;;;;;;;1.70;1.45;;;;;;;;;;4930177;29;20059;-92
2023/12/16 15:21:42;;;;;;;0.68;0.32;;;;;;;;;;5118026;27;20133;-91
2023/12/16 15:24:20;;;;;;;1.55;1.45;;;;;;;;;;5117139;28;20199;-91
2023/12/16 15:27:05;;;;;;;0.20;0.20;;;;;;;;;;5104207;28;20050;-92
2023/12/16 15:29:46;;;;;;;0.57;0.52;;;;;;;;;;5100560;28;20074;-91
2023/12/16 15:32:18;;;;;;;3.00;1.17;;;;;;;;;;5099803;28;20217;-91
2023/12/16 15:34:47;;;;;;;0.00;0.00;;;;;;;;;;5116783;28;20114;-92
2023/12/16 15:37:29;;;;;;;0.20;0.20;;;;;;;;;;5101981;28;20056;-92
2023/12/16 15:40:09;;;;;;;0.85;0.52;;;;;;;;;;5104110;28;20043;-92
2023/12/16 15:42:49;;;;;;;0.47;0.30;;;;;;;;;;5106355;28;20043;-92
2023/12/16 15:45:18;;;;;;;0.40;0.40;;;;;;;;;;5106409;28;20119;-91
2023/12/16 15:47:47;;;;;;;0.05;0.05;;;;;;;;;;5101104;28;20075;-91
2023/12/16 15:50:18;;;;;;;2.05;0.40;;;;;;;;;;5101878;28;20081;-91
2023/12/16 15:52:51;;;;;;;1.20;1.05;;;;;;;;;;5100561;28;20095;-92
2023/12/16 15:55:21;;;;;;;1.17;0.73;;;;;;;;;;5097634;28;20055;-92
2023/12/16 15:57:51;;;;;;;0.52;0.45;;;;;;;;;;5098731;28;20052;-91
2023/12/16 16:00:32;;;;;;;1.75;0.85;;;;;;;;;;5101301;28;20293;-90
2023/12/16 16:03:12;;;;;;;1.50;0.32;;;;;;;;;;5103214;28;20099;-91
2023/12/16 16:05:53;;;;;;;2.28;1.50;;;;;;;;;;5101138;28;20047;-92
2023/12/16 16:08:37;;;;;;;1.27;0.28;;;;;;;;;;5101832;28;20056;-92
2023/12/16 16:11:27;;;;;;;0.10;0.10;;;;;;;;;;5117077;28;20188;-92
2023/12/16 16:14:00;;;;;;;1.30;1.23;;;;;;;;;;5100392;28;20346;-91
2023/12/16 16:16:33;;;;;;;0.00;0.00;;;;;;;;;;5122393;28;20091;-91
2023/12/16 16:19:15;;;;;;;1.17;0.40;;;;;;;;;;5098283;28;20056;-91
2023/12/16 16:21:56;;;;;;;0.00;0.00;;;;;;;;;;5086260;28;20090;-91
2023/12/16 16:24:44;;;;;;;1.75;1.38;;;;;;;;;;5103160;28;20072;-91
2023/12/16 16:27:48;;;;;;;0.10;0.10;;;;;;;;;;5144130;27;24425;-91
2023/12/16 16:30:29;;;;;;;0.90;0.57;;;;;;;;;;5123146;28;20038;-91
2023/12/16 16:32:58;;;;;;;2.10;1.35;;;;;;;;;;5122008;28;20065;-91
2023/12/16 16:35:28;;;;;;;2.10;0.80;;;;;;;;;;5120906;27;20407;-91
2023/12/16 16:38:04;;;;;;;0.08;0.08;;;;;;;;;;5121417;27;20458;-91
2023/12/16 16:40:43;;;;;;;0.60;0.35;;;;;;;;;;5120787;27;20391;-92
2023/12/16 16:43:14;;;;;;;1.08;1.08;;;;;;;;;;5119627;28;20141;-91
2023/12/16 16:45:54;;;;;;;0.52;0.35;;;;;;;;;;5120348;27;20108;-91
2023/12/16 16:48:24;;;;;;;0.30;0.30;;;;;;;;;;5119860;28;20055;-92
2023/12/16 16:50:57;;;;;;;0.05;0.05;;;;;;;;;;5120487;28;20118;-92
2023/12/16 16:53:36;;;;;;;0.52;0.30;;;;;;;;;;5121350;27;20047;-92
2023/12/16 16:56:05;;;;;;;0.32;0.32;;;;;;;;;;5118544;27;20058;-92
2023/12/16 16:58:36;;;;;;;0.75;0.75;;;;;;;;;;5120652;27;20115;-92
2023/12/16 17:01:09;;;;;;;0.00;0.00;;;;;;;;;;5119245;27;20062;-92
2023/12/16 17:03:51;;;;;;;0.10;0.10;;;;;;;;;;5136949;27;20322;-92
2023/12/16 17:06:34;;;;;;;0.65;0.65;;;;;;;;;;5121042;27;20059;-92
2023/12/16 17:09:09;;;;;;;0.13;0.13;;;;;;;;;;5125568;27;20056;-92
2023/12/16 17:11:41;;;;;;;1.42;1.15;;;;;;;;;;5121431;27;20074;-92
2023/12/16 17:14:10;;;;;;;0.00;0.00;;;;;;;;;;5122210;28;20085;-92
2023/12/16 17:16:44;;;;;;;1.20;1.10;;;;;;;;;;5134918;27;20160;-92
2023/12/16 17:19:19;;;;;;;0.47;0.47;;;;;;;;;;5135869;27;20127;-92
2023/12/16 17:21:54;;;;;;;2.83;0.65;;;;;;;;;;5117782;27;20047;-93
2023/12/16 17:24:31;;;;;;;7.70;3.53;;;;;;;;;;5118865;28;20111;-92
2023/12/16 17:27:06;;;;;;;2.60;1.13;;;;;;;;;;5113248;28;20133;-92
2023/12/16 17:29:47;;;;;;;1.65;0.90;;;;;;;;;;5113496;28;20235;-92
2023/12/16 17:32:27;;;;;;;0.03;0.03;;;;;;;;;;5113821;28;20031;-92
2023/12/16 17:35:08;;;;;;;0.20;0.15;;;;;;;;;;5115067;28;20047;-91
2023/12/16 17:37:39;;;;;;;0.00;0.00;;;;;;;;;;5110024;28;20304;-91
2023/12/16 17:40:20;;;;;;;0.20;0.20;;;;;;;;;;5103707;28;20064;-92
2023/12/16 17:42:57;;;;;;;1.77;0.85;;;;;;;;;;5108497;28;20039;-92
2023/12/16 17:45:38;;;;;;;0.00;0.00;;;;;;;;;;5107597;28;20032;-92
2023/12/16 17:48:19;;;;;;;2.53;0.75;;;;;;;;;;5106846;28;20044;-92
2023/12/16 17:50:51;;;;;;;2.22;0.65;;;;;;;;;;5108988;28;20059;-92
2023/12/16 17:53:27;;;;;;;2.60;2.38;;;;;;;;;;5108426;28;20269;-92
2023/12/16 17:56:04;;;;;;;0.00;0.00;;;;;;;;;;5110749;28;20048;-92
2023/12/16 17:58:40;;;;;;;1.80;0.47;;;;;;;;;;5091043;28;20643;-93
2023/12/16 18:01:12;;;;;;;0.38;0.38;;;;;;;;;;5109298;28;20052;-93
2023/12/16 18:03:41;;;;;;;2.67;1.92;;;;;;;;;;5108618;28;20251;-92
2023/12/16 18:06:15;;;;;;;2.40;1.33;;;;;;;;;;5108083;28;20048;-90
2023/12/16 18:08:56;;;;;;;1.23;1.13;;;;;;;;;;5108458;28;20084;-93
2023/12/16 18:11:26;;;;;;;0.35;0.20;;;;;;;;;;5107333;28;20100;-93
2023/12/16 18:13:58;;;;;;;3.20;2.40;;;;;;;;;;5108970;28;20036;-93
2023/12/16 18:16:41;;;;;;;2.03;1.75;;;;;;;;;;5109111;28;20040;-93
2023/12/16 18:19:09;;;;;;;2.13;1.75;;;;;;;;;;5106143;28;20237;-93
2023/12/16 18:21:43;;;;;;;2.95;2.65;;;;;;;;;;5105526;28;20040;-93
2023/12/16 18:24:16;;;;;;;3.53;2.42;;;;;;;;;;5106409;28;20097;-92
2023/12/16 18:26:55;;;;;;;;;;;;;;;;;;5107809;28;20063;-93
2023/12/16 18:29:27;;;;;;;8.30;4.50;;;;;;;;;;5107023;28;20275;-92
2023/12/16 18:31:59;;;;;;;9.43;5.28;;;;;;;;;;5105069;28;20048;-92
2023/12/16 18:34:30;;;;;;;6.88;4.20;;;;;;;;;;5104966;28;20052;-93
2023/12/16 18:37:02;;;;;;;5.38;2.85;;;;;;;;;;5106695;28;20148;-92
2023/12/16 18:39:35;;;;;;;18.42;7.93;;;;;;;;;;5102302;28;20044;-93
2023/12/16 18:42:06;;;;;;;0.00;0.00;;;;;;;;;;5105412;28;20127;-91
2023/12/16 18:44:37;;;;;;;34.25;13.45;;;;;;;;;;5105970;28;20048;-93
2023/12/16 18:47:05;;;;;;;30.80;11.60;;;;;;;;;;5105149;28;20051;-93
2023/12/16 18:49:34;;;;;;;29.33;12.18;;;;;;;;;;5103030;28;20083;-92
2023/12/16 18:52:02;;;;;;;33.92;11.63;;;;;;;;;;5103843;28;20133;-93
2023/12/16 18:54:34;;;;;;;32.00;10.38;;;;;;;;;;5102697;28;20078;-93
2023/12/16 18:57:03;;;;;;;25.85;10.85;;;;;;;;;;5105001;28;20072;-93
2023/12/16 19:02:59;;;;;;;30.40;11.48;;;;;;;;;;5107277;28;20034;-92
2023/12/16 19:05:29;;;;;;;25.95;11.23;;;;;;;;;;5108396;28;20063;-93
2023/12/16 19:08:08;;;;;;;24.40;11.32;;;;;;;;;;5104202;28;20054;-93
2023/12/16 19:10:47;;;;;;;22.63;10.20;;;;;;;;;;5096939;28;20044;-93
2023/12/16 19:13:24;;;;;;;28.73;11.52;;;;;;;;;;5107398;28;20085;-92
2023/12/16 19:15:54;;;;;;;22.98;9.45;;;;;;;;;;5107832;28;20058;-92
2023/12/16 19:18:25;;;;;;;29.15;10.80;;;;;;;;;;5107844;28;20111;-93
2023/12/16 19:21:07;;;;;;;17.52;7.03;;;;;;;;;;5108435;28;20048;-92
2023/12/16 19:23:44;;;;;;;18.25;8.45;;;;;;;;;;5107992;28;20071;-92
2023/12/16 19:26:16;;;;;;;33.38;10.13;;;;;;;;;;5099728;28;20052;-92
2023/12/16 19:28:50;;;;;;;23.85;9.80;;;;;;;;;;5070200;28;20048;-93
2023/12/16 19:31:21;;;;;;;20.58;9.50;;;;;;;;;;5087133;28;20049;-93
2023/12/16 19:34:04;;;;;;;21.73;11.25;;;;;;;;;;5069860;28;20039;-92
2023/12/16 19:36:40;;;;;;;21.27;9.32;;;;;;;;;;5085779;28;20052;-93
2023/12/16 19:39:25;;;;;;;20.30;8.18;;;;;;;;;;5085045;28;20197;-92
2023/12/16 19:42:07;;;;;;;12.88;6.30;;;;;;;;;;5070060;28;20056;-93
2023/12/16 19:44:51;;;;;;;19.83;10.00;;;;;;;;;;5069557;28;20060;-93
2023/12/16 19:47:35;;;;;;;18.58;9.52;;;;;;;;;;5071591;28;20056;-93
2023/12/16 19:50:16;;;;;;;24.67;11.43;;;;;;;;;;5069237;28;20045;-92
2023/12/16 19:52:46;;;;;;;24.73;8.80;;;;;;;;;;5083103;28;20044;-90
2023/12/16 19:55:33;;;;;;;26.90;10.07;;;;;;;;;;5066475;28;20040;-91
2023/12/16 19:58:14;;;;;;;18.70;8.55;;;;;;;;;;5069539;28;20048;-89
2023/12/16 20:00:58;;;;;;;25.35;10.25;;;;;;;;;;5064172;28;20033;-89
2023/12/16 20:04:16;;;;;;;28.65;10.77;;;;;;;;;;5064038;28;20039;-91
2023/12/16 20:06:57;;;;;;;23.60;10.30;;;;;;;;;;5064872;28;20053;-90
2023/12/16 20:09:43;;;;;;;28.17;9.68;;;;;;;;;;5067039;28;20055;-90
2023/12/16 20:12:33;;;;;;;0.80;0.77;;;;;;;;;;5069108;28;20048;-89
2023/12/16 20:15:17;;;;;;;1.35;1.02;;;;;;;;;;5078784;28;20063;-90
2023/12/16 20:18:02;;;;;;;0.00;0.00;;;;;;;;;;5065062;28;20103;-90
2023/12/16 20:20:58;;;;;;;4.03;2.60;;;;;;;;;;5062125;28;20040;-90
2023/12/16 20:23:39;;;;;;;2.17;0.32;;;;;;;;;;5064279;28;20037;-90
2023/12/16 20:26:12;;;;;;;0.30;0.30;;;;;;;;;;5079271;28;20619;-89
2023/12/16 20:28:53;;;;;;;0.00;0.00;;;;;;;;;;5105305;28;20347;-89
2023/12/16 20:31:38;;;;;;;0.50;0.45;;;;;;;;;;5101063;28;20040;-90
2023/12/16 20:34:48;;;;;;;0.55;0.55;;;;;;;;;;5107635;28;20240;-90
2023/12/16 20:37:36;;;;;;;0.00;0.00;;;;;;;;;;5105128;28;20097;-90
2023/12/16 20:40:30;;;;;;;2.25;1.42;;;;;;;;;;5105803;28;20175;-90
2023/12/16 20:43:13;;;;;;;1.20;1.20;;;;;;;;;;5104663;28;20036;-90
2023/12/16 20:45:54;;;;;;;0.03;0.03;;;;;;;;;;5106385;28;20043;-90
2023/12/16 20:48:34;;;;;;;7.75;4.18;;;;;;;;;;5154574;22;20064;-91
2023/12/16 20:51:15;;;;;;;0.95;0.55;;;;;;;;;;5077831;28;20032;-90
2023/12/16 20:53:57;;;;;;;1.13;0.88;;;;;;;;;;5077983;28;20049;-90
2023/12/16 20:56:41;;;;;;;0.60;0.60;;;;;;;;;;5078871;28;20137;-89
2023/12/16 20:59:17;;;;;;;0.57;0.38;;;;;;;;;;5079690;28;20061;-89
2023/12/16 21:01:55;;;;;;;0.00;0.00;;;;;;;;;;5079584;28;20047;-90
2023/12/16 21:04:59;;;;;;;5.18;0.85;;;;;;;;;;5081255;28;20040;-90
2023/12/16 21:07:44;;;;;;;0.20;0.20;;;;;;;;;;5081347;28;20056;-89
2023/12/16 21:10:30;;;;;;;0.00;0.00;;;;;;;;;;5077563;28;20070;-90
2023/12/16 21:13:12;;;;;;;0.40;0.40;;;;;;;;;;5079450;28;20533;-90
2023/12/16 21:15:54;;;;;;;0.00;0.00;;;;;;;;;;5079052;28;20052;-90
2023/12/16 21:18:36;;;;;;;2.70;2.05;;;;;;;;;;5080722;28;20353;-90
2023/12/16 21:21:17;;;;;;;1.77;1.60;;;;;;;;;;5082360;28;20036;-90
2023/12/16 21:24:01;;;;;;;2.42;1.90;;;;;;;;;;5084297;28;20045;-90
2023/12/16 21:26:44;;;;;;;0.43;0.43;;;;;;;;;;5079656;28;20045;-90
2023/12/16 21:29:29;;;;;;;0.00;0.00;;;;;;;;;;5078205;28;20054;-89
2023/12/16 21:32:14;;;;;;;0.35;0.22;;;;;;;;;;5080029;28;20055;-89
2023/12/16 21:34:55;;;;;;;0.20;0.20;;;;;;;;;;5079679;28;20035;-89
2023/12/16 21:37:39;;;;;;;0.30;0.22;;;;;;;;;;5084064;28;20024;-89
2023/12/16 21:40:20;;;;;;;1.55;1.08;;;;;;;;;;5085162;28;20082;-91
2023/12/16 21:42:49;;;;;;;0.00;0.00;;;;;;;;;;5085926;28;20048;-92
2023/12/16 21:45:22;;;;;;;0.20;0.20;;;;;;;;;;5086433;28;20138;-91
2023/12/16 21:47:50;;;;;;;2.08;1.38;;;;;;;;;;5094908;28;20047;-93
2023/12/16 21:50:20;;;;;;;4.72;1.02;;;;;;;;;;5104663;28;20048;-92
2023/12/16 21:53:03;;;;;;;0.45;0.45;;;;;;;;;;5102981;28;20032;-92
2023/12/16 21:55:46;;;;;;;0.45;0.45;;;;;;;;;;5106379;28;20058;-92
2023/12/16 21:58:28;;;;;;;0.03;0.03;;;;;;;;;;5101898;28;20104;-92
2023/12/16 22:01:11;;;;;;;0.50;0.50;;;;;;;;;;5088029;28;20032;-90
2023/12/16 22:03:42;;;;;;;0.43;0.43;;;;;;;;;;5103916;28;20117;-91
2023/12/16 22:06:26;;;;;;;0.35;0.35;;;;;;;;;;5101405;28;20044;-91
2023/12/16 22:08:57;;;;;;;0.38;0.38;;;;;;;;;;5102434;28;20047;-91
2023/12/16 22:11:39;;;;;;;1.45;1.33;;;;;;;;;;5102771;28;20040;-92
2023/12/16 22:14:20;;;;;;;0.38;0.38;;;;;;;;;;5102407;28;20047;-91
2023/12/16 22:16:52;;;;;;;0.57;0.57;;;;;;;;;;5104480;28;20036;-91
2023/12/16 22:19:20;;;;;;;3.95;1.15;;;;;;;;;;5102233;28;20109;-91
2023/12/16 22:21:53;;;;;;;1.35;0.98;;;;;;;;;;5104628;28;20235;-91
2023/12/16 22:24:34;;;;;;;1.55;0.60;;;;;;;;;;5104591;28;20016;-89